createdAt,value
2023-03-12T00:00:10.693Z,99023.84
2023-03-12T00:05:32.852Z,99017.63
2023-03-12T00:10:35.349Z,99010.02
2023-03-12T00:15:38.667Z,99003.48
2023-03-12T00:20:40.433Z,99002.48
2023-03-12T00:25:44.194Z,98992.48
2023-03-12T00:30:47.359Z,98988.02
2023-03-12T00:35:49.274Z,98982.79
2023-03-12T00:40:51.115Z,98986.55
2023-03-12T00:45:53.497Z,98981.84
2023-03-12T00:50:55.476Z,98974.69
2023-03-12T00:55:57.462Z,98968.32
2023-03-12T01:00:59.512Z,98967.52
2023-03-12T01:06:01.413Z,98964.17
2023-03-12T01:11:03.702Z,98956.95
2023-03-12T01:16:06.168Z,98952.77
2023-03-12T01:21:07.986Z,98955.95
2023-03-12T01:26:09.741Z,98951.27
2023-03-12T01:31:15.358Z,98947.88
2023-03-12T01:36:26.137Z,98944.25
2023-03-12T01:41:32.449Z,98942.02
2023-03-12T01:46:39.873Z,98934.85
2023-03-12T01:51:47.280Z,98931.09
2023-03-12T01:56:50.221Z,98927.86
2023-03-12T02:01:52.670Z,98929.10
2023-03-12T02:06:54.443Z,98933.69
2023-03-12T02:11:56.230Z,98935.74
2023-03-12T02:16:58.405Z,98938.61
2023-03-12T02:22:01.305Z,98938.86
2023-03-12T02:27:05.024Z,98944.25
2023-03-12T02:32:09.167Z,98953.97
2023-03-12T02:37:11.036Z,98955.20
2023-03-12T02:42:12.908Z,98957.27
2023-03-12T02:47:15.399Z,98953.33
2023-03-12T02:52:17.283Z,98948.52
2023-03-12T02:57:19.155Z,98956.10
2023-03-12T03:02:21.032Z,98957.37
2023-03-12T03:07:22.930Z,98962.19
2023-03-12T03:12:24.681Z,98973.48
2023-03-12T03:17:26.970Z,98974.71
2023-03-12T03:22:28.749Z,98983.27
2023-03-12T03:27:30.527Z,98982.45
2023-03-12T03:32:32.360Z,98988.05
2023-03-12T03:37:34.175Z,98992.21
2023-03-12T03:42:36.046Z,98987.56
2023-03-12T03:47:38.518Z,98992.48
2023-03-12T03:52:40.210Z,98993.19
2023-03-12T03:57:41.877Z,98996.65
2023-03-12T04:02:44.685Z,99004.39
2023-03-12T04:07:47.169Z,99009.77
2023-03-12T04:12:49.451Z,99012.05
2023-03-12T04:17:51.273Z,99016.85
2023-03-12T04:22:53.513Z,99026.71
2023-03-12T04:27:55.186Z,99032.17
2023-03-12T04:32:56.863Z,99036.33
2023-03-12T04:38:01.197Z,99043.19
2023-03-12T04:43:02.865Z,99050.63
2023-03-12T04:48:05.979Z,99047.77
2023-03-12T04:53:07.715Z,99056.23
2023-03-12T04:58:09.827Z,99060.90
2023-03-12T05:03:11.568Z,99061.95
2023-03-12T05:08:13.704Z,99061.56
2023-03-12T05:13:17.208Z,99061.41
2023-03-12T05:18:20.927Z,99065.39
2023-03-12T05:23:22.793Z,99076.95
2023-03-12T05:28:27.826Z,99080.98
2023-03-12T05:33:29.725Z,99083.85
2023-03-12T05:38:31.709Z,99092.16
2023-03-12T05:43:34.200Z,99106.76
2023-03-12T05:48:36.683Z,99112.31
2023-03-12T05:53:38.358Z,99113.48
2023-03-12T05:58:41.153Z,99116.89
2023-03-12T06:03:43.219Z,99124.45
2023-03-12T06:08:45.822Z,99130.15
2023-03-12T06:13:48.008Z,99136.52
2023-03-12T06:18:57.051Z,99145.05
2023-03-12T06:23:59.854Z,99151.81
2023-03-12T06:29:01.620Z,99153.45
2023-03-12T06:34:03.911Z,99165.91
2023-03-12T06:39:05.988Z,99180.15
2023-03-12T06:44:08.175Z,99184.02
2023-03-12T06:49:11.177Z,99191.99
2023-03-12T06:54:12.950Z,99198.38
2023-03-12T06:59:15.135Z,99206.04
2023-03-12T07:04:17.222Z,99215.95
2023-03-12T07:09:19.915Z,99223.94
2023-03-12T07:14:21.689Z,99221.42
2023-03-12T07:19:23.592Z,99236.62
2023-03-12T07:24:26.168Z,99242.32
2023-03-12T07:29:28.042Z,99246.02
2023-03-12T07:34:30.356Z,99256.16
2023-03-12T07:39:32.905Z,99254.36
2023-03-12T07:44:36.384Z,99259.35
2023-03-12T07:49:41.199Z,99258.45
2023-03-12T07:54:43.553Z,99260.68
2023-03-12T07:59:46.906Z,99266.46
2023-03-12T08:04:49.221Z,99271.83
2023-03-12T08:09:52.084Z,99276.10
2023-03-12T08:14:54.408Z,99290.34
2023-03-12T08:19:58.280Z,99290.33
2023-03-12T08:25:00.562Z,99290.73
2023-03-12T08:30:05.003Z,99292.85
2023-03-12T08:35:08.422Z,99307.10
2023-03-12T08:40:14.616Z,99309.35
2023-03-12T08:45:18.177Z,99325.56
2023-03-12T08:50:22.574Z,99322.80
2023-03-12T08:55:27.907Z,99325.88
2023-03-12T09:00:30.795Z,99335.91
2023-03-12T09:05:33.190Z,99341.52
2023-03-12T09:10:36.700Z,99344.61
2023-03-12T09:15:39.095Z,99343.56
2023-03-12T09:20:43.120Z,99347.31
2023-03-12T09:25:46.335Z,99358.00
2023-03-12T09:30:48.951Z,99366.41
2023-03-12T09:35:58.939Z,99377.14
2023-03-12T09:41:03.005Z,99387.88
2023-03-12T09:46:15.708Z,99386.20
2023-03-12T09:51:28.162Z,99391.09
2023-03-12T09:56:31.063Z,99396.01
2023-03-12T10:01:38.481Z,99396.70
2023-03-12T10:07:11.710Z,99390.55
2023-03-12T10:12:17.298Z,99393.45
2023-03-12T10:17:31.309Z,99399.25
2023-03-12T10:22:59.607Z,99419.75
2023-03-12T10:28:27.797Z,99445.81
2023-03-12T10:33:41.454Z,99483.27
2023-03-12T10:38:43.630Z,99498.80
2023-03-12T10:43:45.816Z,99501.65
2023-03-12T10:48:47.998Z,99499.17
2023-03-12T10:53:51.922Z,99488.70
2023-03-12T10:58:54.122Z,99494.05
2023-03-12T11:04:14.727Z,99497.02
2023-03-12T11:09:19.364Z,99499.16
2023-03-12T11:14:24.837Z,99502.67
2023-03-12T11:19:26.807Z,99504.66
2023-03-12T11:24:29.805Z,99506.42
2023-03-12T11:29:32.887Z,99525.66
2023-03-12T11:34:35.918Z,99535.21
2023-03-12T11:39:43.633Z,99541.41
2023-03-12T11:44:59.642Z,99548.45
2023-03-12T11:50:23.942Z,99553.55
2023-03-12T11:55:38.619Z,99548.94
2023-03-12T12:00:51.968Z,99553.63
2023-03-12T12:06:00.193Z,99551.81
2023-03-12T12:11:16.605Z,99559.40
2023-03-12T12:16:46.599Z,99569.07
2023-03-12T12:22:27.839Z,99571.70
2023-03-12T12:27:36.684Z,99573.64
2023-03-12T12:32:44.733Z,99581.69
2023-03-12T12:38:19.038Z,99587.77
2023-03-12T12:43:31.882Z,99597.81
2023-03-12T12:48:39.686Z,99597.34
2023-03-12T12:53:53.545Z,99596.75
2023-03-12T12:59:33.683Z,99602.38
2023-03-12T13:04:40.080Z,99603.20
2023-03-12T13:09:53.146Z,99609.31
2023-03-12T13:14:57.267Z,99617.84
2023-03-12T13:20:27.900Z,99631.51
2023-03-12T13:25:45.778Z,99638.34
2023-03-12T13:30:54.250Z,99635.11
2023-03-12T13:36:05.493Z,99640.60
2023-03-12T13:41:09.323Z,99650.75
2023-03-12T13:46:37.563Z,99648.23
2023-03-12T13:51:55.222Z,99650.09
2023-03-12T13:57:02.068Z,99654.73
2023-03-12T14:02:15.311Z,99661.91
2023-03-12T14:07:48.310Z,99670.95
2023-03-12T14:13:05.747Z,99676.02
2023-03-12T14:18:22.162Z,99674.09
2023-03-12T14:23:34.281Z,99678.68
2023-03-12T14:28:41.290Z,99679.23
2023-03-12T14:34:16.055Z,99685.52
2023-03-12T14:39:18.859Z,99684.02
2023-03-12T14:44:27.249Z,99681.70
2023-03-12T14:49:31.059Z,99687.40
2023-03-12T14:54:33.204Z,99689.36
2023-03-12T14:59:37.290Z,99694.95
2023-03-12T15:04:40.865Z,99696.38
2023-03-12T15:09:46.300Z,99694.55
2023-03-12T15:14:52.437Z,99696.11
2023-03-12T15:19:56.873Z,99700.66
2023-03-12T15:25:15.956Z,99699.89
2023-03-12T15:30:25.795Z,99701.02
2023-03-12T15:35:32.193Z,99701.99
2023-03-12T15:40:34.381Z,99698.48
2023-03-12T15:45:38.608Z,99695.28
2023-03-12T15:50:43.459Z,99692.46
2023-03-12T15:55:59.279Z,99697.86
2023-03-12T16:01:12.664Z,99700.30
2023-03-12T16:06:17.874Z,99693.23
2023-03-12T16:11:26.220Z,99693.17
2023-03-12T16:16:28.356Z,99697.79
2023-03-12T16:21:30.469Z,99703.61
2023-03-12T16:26:35.248Z,99707.42
2023-03-12T16:31:37.623Z,99708.77
2023-03-12T16:36:39.422Z,99711.58
2023-03-12T16:41:42.167Z,99717.15
2023-03-12T16:46:44.752Z,99722.73
2023-03-12T16:51:48.069Z,99723.74
2023-03-12T16:56:50.675Z,99732.58
2023-03-12T17:01:54.686Z,99733.04
2023-03-12T17:06:56.765Z,99747.65
2023-03-12T17:11:58.967Z,99754.80
2023-03-12T17:17:00.975Z,99763.96
2023-03-12T17:22:04.146Z,99771.79
2023-03-12T17:27:06.636Z,99773.41
2023-03-12T17:32:08.919Z,99770.14
2023-03-12T17:37:10.993Z,99753.72
2023-03-12T17:42:13.027Z,99753.11
2023-03-12T17:47:15.792Z,99757.05
2023-03-12T17:52:19.753Z,99753.48
2023-03-12T17:57:24.969Z,99756.48
2023-03-12T18:02:29.527Z,99756.13
2023-03-12T18:07:34.711Z,99761.50
2023-03-12T18:12:40.944Z,99770.03
2023-03-12T18:17:50.673Z,99778.73
2023-03-12T18:22:53.696Z,99783.96
2023-03-12T18:27:56.836Z,99796.56
2023-03-12T18:32:59.012Z,99794.12
2023-03-12T18:38:01.698Z,99793.61
2023-03-12T18:43:03.866Z,99800.59
2023-03-12T18:48:06.891Z,99801.30
2023-03-12T18:53:09.261Z,99799.07
2023-03-12T18:58:11.853Z,99800.58
2023-03-12T19:03:15.022Z,99806.17
2023-03-12T19:08:20.420Z,99807.77
2023-03-12T19:13:23.457Z,99808.27
2023-03-12T19:18:26.332Z,99816.40
2023-03-12T19:23:29.946Z,99823.89
2023-03-12T19:28:34.119Z,99829.29
2023-03-12T19:33:37.600Z,99835.75
2023-03-12T19:38:40.080Z,99829.30
2023-03-12T19:43:43.310Z,99823.68
2023-03-12T19:48:46.391Z,99826.17
2023-03-12T19:53:49.330Z,99825.11
2023-03-12T19:58:51.574Z,99822.50
2023-03-12T20:03:56.231Z,99814.23
2023-03-12T20:08:58.601Z,99805.34
2023-03-12T20:14:00.477Z,99795.91
2023-03-12T20:19:04.499Z,99797.23
2023-03-12T20:24:06.897Z,99792.54
2023-03-12T20:29:09.487Z,99795.02
2023-03-12T20:34:11.770Z,99787.30
2023-03-12T20:39:14.115Z,99790.95
2023-03-12T20:44:18.395Z,99795.09
2023-03-12T20:49:21.187Z,99804.58
2023-03-12T20:54:23.685Z,99803.68
2023-03-12T20:59:28.835Z,99804.69
2023-03-12T21:04:31.230Z,99811.33
2023-03-12T21:09:34.247Z,99803.31
2023-03-12T21:14:38.632Z,99795.77
2023-03-12T21:19:41.771Z,99783.36
2023-03-12T21:24:43.861Z,99779.08
2023-03-12T21:29:45.530Z,99774.14
2023-03-12T21:34:48.088Z,99771.88
2023-03-12T21:39:50.506Z,99763.46
2023-03-12T21:44:52.901Z,99759.78
2023-03-12T21:49:56.211Z,99748.61
2023-03-12T21:54:58.101Z,99737.07
2023-03-12T21:59:59.845Z,99728.03
2023-03-12T22:05:01.533Z,99722.31
2023-03-12T22:10:05.761Z,99716.65
2023-03-12T22:15:09.613Z,99721.77
2023-03-12T22:20:12.178Z,99719.40
2023-03-12T22:25:14.058Z,99718.63
2023-03-12T22:30:16.460Z,99716.55
2023-03-12T22:35:25.282Z,99712.66
2023-03-12T22:40:27.468Z,99714.92
2023-03-12T22:45:29.242Z,99715.86
2023-03-12T22:50:32.732Z,99721.79
2023-03-12T22:55:34.428Z,99718.02
2023-03-12T23:00:36.205Z,99702.09
2023-03-12T23:05:37.974Z,99702.77
2023-03-12T23:10:39.951Z,99707.45
2023-03-12T23:15:42.168Z,99703.61
2023-03-12T23:20:45.245Z,99698.70
2023-03-12T23:25:53.173Z,99694.05
2023-03-12T23:31:07.643Z,99690.94
2023-03-12T23:36:15.760Z,99687.37
2023-03-12T23:41:23.265Z,99690.09
2023-03-12T23:46:27.018Z,99697.16
2023-03-12T23:51:32.408Z,99691.45
2023-03-12T23:56:36.984Z,99684.98
